SWA263 KMCO-KAUS
Flight info
| Callsign | SWA263 |
|---|---|
| Flight time | N/A |
| Altitude | 36000 |
| Route | OSPRY1 REMIS Y280 LEV LCH WEEED WLEEE7 |
| Aircraft | B738/M-SDE2E3FGHIRWXY/LB1 |
Departure
| Time | 2026-05-05 14:00 |
|---|---|
| Airport | Orlando International Airport (KMCO) |
Arrival
| Time | N/A |
|---|---|
| Airport | Austin Bergstrom International Airport (KAUS) |
| Time | Latitude | Longitude | Altitude | Speed | Heading |
|---|---|---|---|---|---|
| 2026-05-05 13:25 | 28.43634 | -81.30151 | 93 ft | 0 kts | 178° |
| 2026-05-05 13:46 | 28.43642 | -81.30151 | 95 ft | 3 kts | 171° |
| 2026-05-05 13:46 | 28.43657 | -81.30156 | 94 ft | 3 kts | 143° |
| 2026-05-05 13:46 | 28.43675 | -81.30175 | 93 ft | 4 kts | 135° |
| 2026-05-05 13:46 | 28.43691 | -81.30190 | 92 ft | 4 kts | 146° |
| 2026-05-05 13:47 | 28.43713 | -81.30207 | 92 ft | 4 kts | 141° |
| 2026-05-05 13:47 | 28.43729 | -81.30225 | 95 ft | 3 kts | 120° |
| 2026-05-05 13:47 | 28.43733 | -81.30241 | 93 ft | 2 kts | 79° |
| 2026-05-05 13:47 | 28.43730 | -81.30251 | 92 ft | 0 kts | 53° |
| 2026-05-05 13:49 | 28.43730 | -81.30250 | 92 ft | 1 kts | 53° |
| 2026-05-05 13:49 | 28.43742 | -81.30233 | 93 ft | 5 kts | 53° |
| 2026-05-05 13:49 | 28.43767 | -81.30196 | 93 ft | 7 kts | 51° |
| 2026-05-05 13:49 | 28.43821 | -81.30171 | 94 ft | 11 kts | 6° |
| 2026-05-05 13:50 | 28.43898 | -81.30189 | 100 ft | 12 kts | 308° |
| 2026-05-05 13:50 | 28.43909 | -81.30285 | 102 ft | 13 kts | 273° |
| 2026-05-05 13:50 | 28.43914 | -81.30408 | 103 ft | 17 kts | 272° |
| 2026-05-05 13:50 | 28.43921 | -81.30546 | 105 ft | 18 kts | 275° |
| 2026-05-05 13:51 | 28.43932 | -81.30699 | 108 ft | 22 kts | 275° |
| 2026-05-05 13:51 | 28.43935 | -81.30737 | 108 ft | 23 kts | 275° |
| 2026-05-05 13:51 | 28.43943 | -81.30926 | 106 ft | 24 kts | 270° |
| 2026-05-05 13:51 | 28.43941 | -81.31110 | 106 ft | 23 kts | 266° |
| 2026-05-05 13:52 | 28.43932 | -81.31286 | 106 ft | 22 kts | 266° |
| 2026-05-05 13:52 | 28.43925 | -81.31461 | 104 ft | 22 kts | 269° |
| 2026-05-05 13:52 | 28.43923 | -81.31634 | 106 ft | 22 kts | 269° |
| 2026-05-05 13:52 | 28.43922 | -81.31791 | 100 ft | 11 kts | 270° |
| 2026-05-05 13:53 | 28.43892 | -81.31846 | 98 ft | 10 kts | 197° |
| 2026-05-05 13:53 | 28.43784 | -81.31847 | 98 ft | 21 kts | 180° |
| 2026-05-05 13:53 | 28.43605 | -81.31845 | 99 ft | 30 kts | 180° |
| 2026-05-05 13:53 | 28.43367 | -81.31842 | 99 ft | 38 kts | 179° |
| 2026-05-05 13:54 | 28.43102 | -81.31839 | 98 ft | 37 kts | 179° |
| 2026-05-05 13:54 | 28.42853 | -81.31837 | 98 ft | 34 kts | 179° |
| 2026-05-05 13:54 | 28.42630 | -81.31835 | 101 ft | 30 kts | 180° |
| 2026-05-05 13:54 | 28.42427 | -81.31836 | 100 ft | 28 kts | 183° |
| 2026-05-05 13:55 | 28.42234 | -81.31849 | 98 ft | 28 kts | 184° |
| 2026-05-05 13:55 | 28.42026 | -81.31868 | 98 ft | 31 kts | 180° |
| 2026-05-05 13:55 | 28.41816 | -81.31869 | 97 ft | 29 kts | 184° |
| 2026-05-05 13:55 | 28.41640 | -81.31879 | 97 ft | 22 kts | 179° |
| 2026-05-05 13:56 | 28.41572 | -81.31894 | 98 ft | 9 kts | 222° |
| 2026-05-05 13:56 | 28.41548 | -81.31953 | 98 ft | 8 kts | 258° |
| 2026-05-05 13:56 | 28.41544 | -81.32018 | 97 ft | 8 kts | 269° |
| 2026-05-05 13:56 | 28.41543 | -81.32104 | 96 ft | 15 kts | 269° |
| 2026-05-05 13:57 | 28.41541 | -81.32252 | 96 ft | 22 kts | 269° |
| 2026-05-05 13:57 | 28.41539 | -81.32442 | 97 ft | 24 kts | 269° |
| 2026-05-05 13:57 | 28.41539 | -81.32563 | 98 ft | 4 kts | 272° |
| 2026-05-05 13:57 | 28.41541 | -81.32599 | 99 ft | 4 kts | 276° |
| 2026-05-05 13:58 | 28.41548 | -81.32632 | 100 ft | 4 kts | 291° |
| 2026-05-05 13:58 | 28.41587 | -81.32662 | 100 ft | 9 kts | 349° |
| 2026-05-05 13:58 | 28.41595 | -81.32662 | 100 ft | 0 kts | 355° |
| 2026-05-05 13:58 | 28.41603 | -81.32663 | 100 ft | 7 kts | 355° |
| 2026-05-05 13:59 | 28.42406 | -81.32673 | 99 ft | 117 kts | 359° |
| 2026-05-05 13:59 | 28.43383 | -81.32687 | 116 ft | 161 kts | 359° |
| 2026-05-05 14:00 | 28.45900 | -81.32708 | 835 ft | 193 kts | 359° |
| 2026-05-05 14:00 | 28.46758 | -81.32720 | 1497 ft | 180 kts | 359° |
| 2026-05-05 14:00 | 28.48407 | -81.32722 | 2360 ft | 186 kts | 359° |
| 2026-05-05 14:00 | 28.49786 | -81.32729 | 2642 ft | 206 kts | 359° |
| 2026-05-05 14:01 | 28.51241 | -81.32734 | 3014 ft | 217 kts | 359° |
| 2026-05-05 14:01 | 28.52812 | -81.32756 | 3188 ft | 234 kts | 359° |
| 2026-05-05 14:01 | 28.54469 | -81.32808 | 3542 ft | 242 kts | 352° |
| 2026-05-05 14:01 | 28.56079 | -81.33379 | 4060 ft | 244 kts | 336° |
| 2026-05-05 14:02 | 28.57639 | -81.34172 | 4711 ft | 246 kts | 334° |
| 2026-05-05 14:02 | 28.58990 | -81.35325 | 5383 ft | 246 kts | 307° |
| 2026-05-05 14:02 | 28.59698 | -81.37085 | 5807 ft | 259 kts | 279° |
| 2026-05-05 14:02 | 28.59763 | -81.39180 | 6268 ft | 269 kts | 269° |
| 2026-05-05 14:03 | 28.59726 | -81.41321 | 6865 ft | 271 kts | 269° |
| 2026-05-05 14:03 | 28.59690 | -81.43488 | 6982 ft | 275 kts | 269° |
| 2026-05-05 14:03 | 28.59663 | -81.45666 | 7004 ft | 275 kts | 269° |
| 2026-05-05 14:03 | 28.59638 | -81.47842 | 6997 ft | 275 kts | 268° |
| 2026-05-05 14:04 | 28.59226 | -81.49938 | 7018 ft | 274 kts | 243° |
| 2026-05-05 14:04 | 28.58122 | -81.51725 | 7360 ft | 279 kts | 230° |
| 2026-05-05 14:04 | 28.56851 | -81.53403 | 8105 ft | 280 kts | 229° |
| 2026-05-05 14:04 | 28.55569 | -81.55067 | 8848 ft | 281 kts | 229° |
| 2026-05-05 14:05 | 28.54273 | -81.56749 | 9541 ft | 284 kts | 229° |
| 2026-05-05 14:05 | 28.52966 | -81.58451 | 10227 ft | 288 kts | 229° |
| 2026-05-05 14:05 | 28.51606 | -81.60229 | 10482 ft | 309 kts | 229° |
| 2026-05-05 14:05 | 28.50149 | -81.62142 | 10654 ft | 331 kts | 229° |
| 2026-05-05 14:06 | 28.48593 | -81.64183 | 10828 ft | 351 kts | 229° |
| 2026-05-05 14:06 | 28.46956 | -81.66335 | 11066 ft | 367 kts | 229° |
| 2026-05-05 14:06 | 28.45270 | -81.68555 | 11585 ft | 374 kts | 229° |
| 2026-05-05 14:06 | 28.43567 | -81.70798 | 12240 ft | 376 kts | 229° |
| 2026-05-05 14:07 | 28.41849 | -81.73060 | 12899 ft | 379 kts | 229° |
| 2026-05-05 14:07 | 28.40118 | -81.75339 | 13537 ft | 383 kts | 229° |
| 2026-05-05 14:07 | 28.38368 | -81.77641 | 14171 ft | 386 kts | 229° |
| 2026-05-05 14:07 | 28.36605 | -81.79960 | 14813 ft | 390 kts | 229° |
| 2026-05-05 14:08 | 28.34825 | -81.82301 | 15447 ft | 393 kts | 229° |
| 2026-05-05 14:08 | 28.33028 | -81.84661 | 16068 ft | 397 kts | 229° |
| 2026-05-05 14:08 | 28.31212 | -81.87043 | 16678 ft | 401 kts | 229° |
| 2026-05-05 14:08 | 28.29588 | -81.89620 | 17232 ft | 405 kts | 244° |
| 2026-05-05 14:09 | 28.28720 | -81.92662 | 17823 ft | 407 kts | 257° |
| 2026-05-05 14:09 | 28.28128 | -81.95808 | 18408 ft | 410 kts | 258° |
| 2026-05-05 14:09 | 28.27552 | -81.98985 | 18923 ft | 414 kts | 258° |
| 2026-05-05 14:09 | 28.26971 | -82.02199 | 19435 ft | 417 kts | 258° |
| 2026-05-05 14:10 | 28.26379 | -82.05429 | 19947 ft | 420 kts | 258° |
| 2026-05-05 14:10 | 28.25771 | -82.08690 | 20452 ft | 423 kts | 258° |
| 2026-05-05 14:10 | 28.25153 | -82.11963 | 20936 ft | 426 kts | 258° |
| 2026-05-05 14:10 | 28.24532 | -82.15225 | 21394 ft | 429 kts | 258° |
| 2026-05-05 14:11 | 28.23897 | -82.18544 | 21840 ft | 432 kts | 258° |
| 2026-05-05 14:11 | 28.23255 | -82.21888 | 22278 ft | 435 kts | 257° |
| 2026-05-05 14:11 | 28.22608 | -82.25251 | 22702 ft | 438 kts | 257° |
| 2026-05-05 14:11 | 28.21956 | -82.28636 | 23114 ft | 441 kts | 257° |
| 2026-05-05 14:12 | 28.21299 | -82.32040 | 23510 ft | 443 kts | 257° |
| 2026-05-05 14:12 | 28.20638 | -82.35464 | 23900 ft | 446 kts | 257° |
| 2026-05-05 14:12 | 28.19971 | -82.38911 | 24278 ft | 449 kts | 257° |
| 2026-05-05 14:12 | 28.19301 | -82.42376 | 24644 ft | 451 kts | 257° |
| 2026-05-05 14:13 | 28.18627 | -82.45854 | 24992 ft | 454 kts | 257° |
| 2026-05-05 14:13 | 28.17946 | -82.49353 | 25343 ft | 456 kts | 257° |
| 2026-05-05 14:13 | 28.17234 | -82.52863 | 25667 ft | 458 kts | 256° |
| 2026-05-05 14:13 | 28.16525 | -82.56392 | 25977 ft | 460 kts | 256° |
| 2026-05-05 14:14 | 28.15828 | -82.59946 | 26286 ft | 463 kts | 257° |
| 2026-05-05 14:14 | 28.15137 | -82.63507 | 26586 ft | 464 kts | 257° |
| 2026-05-05 14:14 | 28.14444 | -82.67089 | 26877 ft | 466 kts | 257° |
| 2026-05-05 14:14 | 28.13748 | -82.70686 | 27155 ft | 468 kts | 257° |
| 2026-05-05 14:15 | 28.13048 | -82.74295 | 27435 ft | 470 kts | 256° |
| 2026-05-05 14:15 | 28.12580 | -82.76701 | 27616 ft | 471 kts | 257° |
| 2026-05-05 14:15 | 28.11644 | -82.81505 | 28015 ft | 472 kts | 256° |
| 2026-05-05 14:15 | 28.10931 | -82.85139 | 28379 ft | 471 kts | 257° |
| 2026-05-05 14:16 | 28.10214 | -82.88755 | 28781 ft | 469 kts | 256° |
| 2026-05-05 14:16 | 28.09510 | -82.92354 | 29142 ft | 469 kts | 256° |
| 2026-05-05 14:16 | 28.08815 | -82.95967 | 29454 ft | 469 kts | 257° |
| 2026-05-05 14:16 | 28.08361 | -82.98353 | 29674 ft | 468 kts | 257° |
| 2026-05-05 14:17 | 28.07680 | -83.01959 | 30021 ft | 468 kts | 257° |
| 2026-05-05 14:17 | 28.07002 | -83.05560 | 30356 ft | 467 kts | 257° |
| 2026-05-05 14:17 | 28.06326 | -83.09151 | 30693 ft | 466 kts | 257° |